createdAt,value
2023-04-01T13:03:54.158Z,18.9279
2023-04-01T13:04:55.780Z,18.7629
2023-04-01T13:05:57.148Z,18.7924
2023-04-01T13:06:58.679Z,18.8989
2023-04-01T13:15:21.828Z,17.1053
2023-04-01T13:16:23.394Z,16.5955
2023-04-01T13:17:24.926Z,16.3391
2023-04-01T13:18:26.435Z,16.1543
2023-04-01T13:19:27.902Z,16.0084
2023-04-01T13:20:29.445Z,15.8992
2023-04-01T13:21:30.990Z,15.8046
2023-04-01T13:22:32.512Z,15.7482
2023-04-01T13:23:33.983Z,15.7059
2023-04-01T13:24:35.780Z,15.6384
2023-04-01T13:25:37.054Z,15.6063
2023-04-01T13:26:38.568Z,15.5926
2023-04-01T13:27:40.130Z,15.5665
2023-04-01T13:28:41.631Z,15.5323
2023-04-01T13:29:43.206Z,15.4877
2023-04-01T13:30:44.691Z,15.4572
2023-04-01T13:31:46.225Z,15.4414
2023-04-01T13:32:47.839Z,15.4466
2023-04-01T13:33:49.214Z,15.4475
2023-04-01T13:34:50.838Z,15.4272
2023-04-01T13:35:52.315Z,15.4121
2023-04-01T13:36:53.827Z,15.3770
2023-04-01T13:37:55.353Z,15.3582
2023-04-01T13:38:56.857Z,15.3484
2023-04-01T13:39:58.374Z,15.3510
2023-04-01T13:41:03.498Z,15.3444
2023-04-01T16:09:08.464Z,16.0904
2023-04-01T16:10:09.962Z,15.8160
2023-04-01T16:11:11.504Z,15.7605
2023-04-01T16:12:13.039Z,15.7210
2023-04-01T16:13:14.552Z,15.6958
2023-04-01T16:14:16.085Z,15.6785
2023-04-01T16:15:17.619Z,15.6619
2023-04-01T16:16:19.239Z,15.6541
2023-04-01T16:17:20.732Z,15.6494
2023-04-01T16:18:22.202Z,15.6452
2023-04-01T16:19:23.857Z,15.6409
2023-04-01T16:20:25.260Z,15.6307
2023-04-01T16:21:26.780Z,15.6215
2023-04-01T16:22:28.322Z,15.6145
2023-04-01T16:23:29.841Z,15.6121
2023-04-01T16:24:31.383Z,15.6082
2023-04-01T16:25:33.056Z,15.6054
2023-04-01T16:26:34.451Z,15.6041
2023-04-01T16:27:36.058Z,15.6002
2023-04-01T16:28:37.622Z,15.6001
2023-04-01T16:29:39.130Z,15.6039
2023-04-01T16:30:40.657Z,15.5906
2023-04-01T16:31:42.103Z,15.5895
2023-04-01T16:32:43.868Z,15.5964
2023-04-01T16:33:45.140Z,15.6031
2023-04-01T16:34:46.682Z,15.6042
2023-04-01T16:35:48.337Z,15.5995
2023-04-01T16:36:49.925Z,15.5981
2023-04-01T16:37:51.287Z,15.5907
2023-04-01T16:38:53.013Z,15.5859
2023-04-01T16:39:54.321Z,15.5824
2023-04-01T16:40:55.858Z,15.5770
2023-04-01T16:41:57.390Z,15.5654
2023-04-01T16:42:58.911Z,15.5610
2023-04-01T16:44:00.434Z,15.5566
2023-04-01T16:45:01.970Z,15.5521
2023-04-01T16:46:03.537Z,15.5528
2023-04-01T16:47:05.073Z,15.5544
2023-04-01T16:48:06.686Z,15.5541
2023-04-01T16:49:08.162Z,15.5482
2023-04-01T16:50:09.596Z,15.5405
2023-04-01T16:51:11.183Z,15.5358
2023-04-01T16:52:12.859Z,15.5165
2023-04-01T16:53:14.361Z,15.5053
2023-04-01T16:54:15.708Z,15.4953
2023-04-01T16:55:17.254Z,15.4879
2023-04-01T16:56:18.784Z,15.4861
2023-04-01T16:57:20.385Z,15.4854
2023-04-01T16:58:21.906Z,15.4835
2023-04-01T16:59:23.596Z,15.4541
2023-04-01T17:00:25.703Z,15.3692
2023-04-01T17:01:28.760Z,15.3060
2023-04-01T17:02:28.017Z,15.2623
2023-04-01T17:03:29.474Z,15.2268
2023-04-01T17:04:31.061Z,15.1842
2023-04-01T17:05:32.534Z,15.1533
2023-04-01T17:06:34.053Z,15.1333
2023-04-01T17:07:35.608Z,15.0973
2023-04-01T17:08:37.152Z,15.0502
2023-04-01T17:09:38.649Z,15.0096
2023-04-01T17:10:40.176Z,14.9730
2023-04-01T17:11:41.795Z,14.9330
2023-04-01T17:12:43.407Z,14.8896
2023-04-01T17:13:44.884Z,14.8122
2023-04-01T17:14:46.670Z,14.7986
2023-04-01T17:15:48.063Z,14.8562
2023-04-01T17:16:49.342Z,14.9614
2023-04-01T17:17:50.956Z,15.0509
2023-04-01T17:18:52.386Z,15.1243
2023-04-01T17:19:53.930Z,15.1765
2023-04-01T17:20:55.492Z,15.2189
2023-04-01T17:21:57.002Z,15.2530
2023-04-01T17:22:58.608Z,15.2777
2023-04-01T17:24:00.063Z,15.3028
2023-04-01T17:25:01.564Z,15.3163
2023-04-01T17:26:03.119Z,15.3200
2023-04-01T17:27:04.657Z,15.3331
2023-04-01T17:28:06.158Z,15.3435
2023-04-01T17:29:07.728Z,15.3435
2023-04-01T17:30:09.207Z,15.3476
2023-04-01T17:31:10.853Z,15.3490
2023-04-01T17:32:12.262Z,15.3474
2023-04-01T17:33:13.826Z,15.3466
2023-04-01T17:34:15.344Z,15.3413
2023-04-01T17:35:16.896Z,15.3370
2023-04-01T17:36:18.381Z,15.3429
2023-04-01T17:37:19.981Z,15.3547
2023-04-01T17:38:21.463Z,15.3592
2023-04-01T17:39:22.954Z,15.3669
2023-04-01T17:40:24.658Z,15.3557
2023-04-01T17:41:26.033Z,15.3469
2023-04-01T17:42:27.533Z,15.3489
2023-04-01T17:43:29.084Z,15.3514
2023-04-01T17:44:30.690Z,15.3618
2023-04-01T17:45:32.231Z,15.3684
2023-04-01T17:46:33.733Z,15.3700
2023-04-01T17:47:35.204Z,15.3753
2023-04-01T17:48:36.784Z,15.3702
2023-04-01T17:49:38.278Z,15.3564
2023-04-01T17:50:39.791Z,15.3532
2023-04-01T17:51:41.462Z,15.3469
2023-04-01T17:52:42.803Z,15.3508
2023-04-01T17:53:44.349Z,15.3518
2023-04-01T17:54:45.873Z,15.3530
2023-04-01T17:55:47.430Z,15.3454
2023-04-01T17:56:48.998Z,15.3413
2023-04-01T17:57:50.450Z,15.3407
2023-04-01T17:58:52.018Z,15.3311
2023-04-01T17:59:53.548Z,15.3247
2023-04-01T18:00:55.028Z,15.3382
2023-04-01T18:01:56.593Z,15.3482
2023-04-01T18:02:58.131Z,15.3373
2023-04-01T18:04:00.150Z,15.3175
2023-04-01T18:05:01.166Z,15.3153
2023-04-01T18:06:02.723Z,15.3415
2023-04-01T18:07:04.204Z,15.3528
2023-04-01T18:08:05.703Z,15.3620
2023-04-01T18:09:07.254Z,15.3699
2023-04-01T18:10:08.825Z,15.3592
2023-04-01T18:11:10.305Z,15.3693
2023-04-01T18:12:11.804Z,15.3642
2023-04-01T18:13:13.341Z,15.3626
2023-04-01T18:14:14.943Z,15.3707
2023-04-01T18:15:16.421Z,15.3662
2023-04-01T18:16:18.134Z,15.3609
2023-04-01T18:17:19.515Z,15.3624
2023-04-01T18:18:20.984Z,15.3514
2023-04-01T18:19:22.527Z,15.3469
2023-04-01T18:20:24.028Z,15.3266
2023-04-01T18:21:25.582Z,15.3174
2023-04-01T18:22:27.092Z,15.3226
2023-04-01T18:23:28.776Z,15.3357
2023-04-01T18:24:30.162Z,15.3425
2023-04-01T18:25:31.664Z,15.3555
2023-04-01T18:26:33.237Z,15.3560
2023-04-01T18:27:34.765Z,15.3591
2023-04-01T18:28:36.235Z,15.3554
2023-04-01T18:29:37.856Z,15.3563
2023-04-01T18:30:39.321Z,15.3536
2023-04-01T18:31:40.899Z,15.3561
2023-04-01T18:32:42.497Z,15.3705
2023-04-01T18:33:43.958Z,15.3830
2023-04-01T18:34:45.440Z,15.3845
2023-04-01T18:35:47.051Z,15.3892
2023-04-01T18:36:49.437Z,15.3936
